createdAt,value
2022-12-23T00:02:04.665Z,13.53
2022-12-23T00:04:33.199Z,10.77
2022-12-23T00:07:02.899Z,11.50
2022-12-23T00:09:31.241Z,13.20
2022-12-23T00:12:17.347Z,12.50
2022-12-23T00:15:03.433Z,15.40
2022-12-23T00:17:31.865Z,11.27
2022-12-23T00:20:00.196Z,11.77
2022-12-23T00:22:43.790Z,14.20
2022-12-23T00:25:12.407Z,14.10
2022-12-23T00:27:41.036Z,12.30
2022-12-23T00:30:10.270Z,11.80
2022-12-23T00:32:38.625Z,15.17
2022-12-23T00:35:07.340Z,10.60
2022-12-23T00:37:37.033Z,16.60
2022-12-23T00:40:23.389Z,15.03
2022-12-23T00:42:54.419Z,13.07
2022-12-23T00:45:22.759Z,16.60
2022-12-23T00:48:09.073Z,13.47
2022-12-23T00:50:39.329Z,13.93
2022-12-23T00:53:09.070Z,19.60
2022-12-23T00:55:37.356Z,18.50
2022-12-23T00:58:05.750Z,17.43
2022-12-23T01:00:51.874Z,16.17
2022-12-23T01:03:38.140Z,15.53
2022-12-23T01:06:06.689Z,13.20
2022-12-23T01:08:36.370Z,15.93
2022-12-23T01:11:04.843Z,13.53
2022-12-23T01:13:33.323Z,17.10
2022-12-23T01:16:02.517Z,12.83
2022-12-23T01:18:30.827Z,10.20
2022-12-23T01:21:03.113Z,13.33
2022-12-23T01:23:31.475Z,11.07
2022-12-23T01:26:01.835Z,14.63
2022-12-23T01:28:30.910Z,13.97
2022-12-23T01:30:59.419Z,12.53
2022-12-23T01:33:27.804Z,11.43
2022-12-23T01:36:00.960Z,14.43
2022-12-23T01:38:29.257Z,11.07
2022-12-23T01:40:57.878Z,13.50
2022-12-23T01:43:40.109Z,11.50
2022-12-23T01:46:10.440Z,12.10
2022-12-23T01:48:39.677Z,8.80
2022-12-23T01:51:10.872Z,10.87
2022-12-23T01:53:40.332Z,10.63
2022-12-23T01:56:12.178Z,10.07
2022-12-23T01:58:41.752Z,10.23
2022-12-23T02:01:30.132Z,9.50
2022-12-23T02:04:00.326Z,12.97
2022-12-23T02:06:44.035Z,9.93
2022-12-23T02:09:19.024Z,10.50
2022-12-23T02:12:01.640Z,9.17
2022-12-23T02:14:52.617Z,10.97
2022-12-23T02:17:24.030Z,10.27
2022-12-23T02:20:05.754Z,8.83
2022-12-23T02:22:42.895Z,11.00
2022-12-23T02:25:38.451Z,11.67
2022-12-23T02:28:14.879Z,11.13
2022-12-23T02:30:48.097Z,10.70
2022-12-23T02:33:27.897Z,11.23
2022-12-23T02:35:58.813Z,10.60
2022-12-23T02:38:30.830Z,11.67
2022-12-23T02:41:03.300Z,9.13
2022-12-23T02:43:33.911Z,12.07
2022-12-23T02:46:07.317Z,15.40
2022-12-23T02:48:37.282Z,11.93
2022-12-23T02:51:06.689Z,9.73
2022-12-23T02:53:36.828Z,13.43
2022-12-23T02:56:06.054Z,10.77
2022-12-23T02:58:38.391Z,13.40
2022-12-23T03:01:08.797Z,11.67
2022-12-23T03:03:37.438Z,10.93
2022-12-23T03:06:14.451Z,9.17
2022-12-23T03:08:45.089Z,9.27
2022-12-23T03:11:14.590Z,8.50
2022-12-23T03:13:50.559Z,11.47
2022-12-23T03:16:24.210Z,10.17
2022-12-23T03:19:04.277Z,9.00
2022-12-23T03:21:36.089Z,9.77
2022-12-23T03:24:09.268Z,8.93
2022-12-23T03:26:41.073Z,12.83
2022-12-23T03:29:13.081Z,8.80
2022-12-23T03:31:43.310Z,12.27
2022-12-23T03:34:13.007Z,11.97
2022-12-23T03:36:43.610Z,11.00
2022-12-23T03:39:16.683Z,14.03
2022-12-23T03:41:49.202Z,15.93
2022-12-23T03:44:19.245Z,14.67
2022-12-23T03:46:53.082Z,15.63
2022-12-23T03:49:23.245Z,15.57
2022-12-23T03:51:54.844Z,16.00
2022-12-23T03:54:25.519Z,17.40
2022-12-23T03:56:56.533Z,17.50
2022-12-23T03:59:26.820Z,15.90
2022-12-23T04:02:02.083Z,16.07
2022-12-23T04:04:32.566Z,18.63
2022-12-23T04:07:02.472Z,16.60
2022-12-23T04:09:31.043Z,18.03
2022-12-23T04:11:59.874Z,17.40
2022-12-23T04:14:28.221Z,16.23
2022-12-23T04:16:59.295Z,17.50
2022-12-23T04:19:27.634Z,14.00
2022-12-23T04:21:57.673Z,14.17
2022-12-23T04:24:27.075Z,13.00
2022-12-23T04:26:55.352Z,13.97
2022-12-23T04:29:23.677Z,11.33
2022-12-23T04:31:51.992Z,11.73
2022-12-23T04:34:21.725Z,9.90
2022-12-23T04:36:50.025Z,12.00
2022-12-23T04:39:18.301Z,11.17
2022-12-23T04:41:46.605Z,9.73
2022-12-23T04:44:14.911Z,12.60
2022-12-23T04:46:43.516Z,10.20
2022-12-23T04:49:11.800Z,11.03
2022-12-23T04:51:41.459Z,11.63
2022-12-23T04:54:09.716Z,12.80
2022-12-23T04:56:37.955Z,9.93
2022-12-23T04:59:06.270Z,11.43
2022-12-23T05:01:34.652Z,8.97
2022-12-23T05:04:03.048Z,11.83
2022-12-23T05:06:31.383Z,10.60
2022-12-23T05:09:01.106Z,9.30
2022-12-23T05:11:29.352Z,10.67
2022-12-23T05:13:57.751Z,11.73
2022-12-23T05:16:26.437Z,10.80
2022-12-23T05:18:54.914Z,10.10
2022-12-23T05:21:23.222Z,9.20
2022-12-23T05:23:51.627Z,10.63
2022-12-23T05:26:21.367Z,11.10
2022-12-23T05:28:49.761Z,9.83
2022-12-23T05:31:18.103Z,10.03
2022-12-23T05:33:46.509Z,9.57
2022-12-23T05:36:15.055Z,11.90
2022-12-23T05:38:43.686Z,11.50
2022-12-23T05:41:12.207Z,11.50
2022-12-23T05:43:43.273Z,9.63
2022-12-23T05:46:13.768Z,9.33
2022-12-23T05:48:42.381Z,10.93
2022-12-23T05:51:10.901Z,10.93
2022-12-23T05:53:39.310Z,10.10
2022-12-23T05:56:08.060Z,12.17
2022-12-23T05:58:36.364Z,9.90
2022-12-23T06:01:06.351Z,10.37
2022-12-23T06:03:34.984Z,10.10
2022-12-23T06:06:03.620Z,11.27
2022-12-23T06:08:31.913Z,10.33
2022-12-23T06:11:00.368Z,11.30
2022-12-23T06:13:28.654Z,14.43
2022-12-23T06:15:57.128Z,15.47
2022-12-23T06:18:27.107Z,15.50
2022-12-23T06:20:55.480Z,14.53
2022-12-23T06:23:23.746Z,16.20
2022-12-23T06:25:52.017Z,19.40
2022-12-23T06:28:20.301Z,17.03
2022-12-23T06:30:53.856Z,16.00
2022-12-23T06:33:22.193Z,17.57
2022-12-23T06:35:51.933Z,17.60
2022-12-23T06:38:20.242Z,17.23
2022-12-23T06:40:48.537Z,17.90
2022-12-23T06:43:17.032Z,17.67
2022-12-23T06:45:48.604Z,18.60
2022-12-23T06:48:17.162Z,17.73
2022-12-23T06:50:45.748Z,16.17
2022-12-23T06:53:15.559Z,17.43
2022-12-23T06:55:44.087Z,15.13
2022-12-23T06:58:12.447Z,16.73
2022-12-23T07:00:40.902Z,15.83
2022-12-23T07:03:09.519Z,18.00
2022-12-23T07:05:38.111Z,15.63
2022-12-23T07:08:09.119Z,15.10
2022-12-23T07:10:38.715Z,16.33
2022-12-23T07:13:07.090Z,15.20
2022-12-23T07:15:35.356Z,15.97
2022-12-23T07:18:05.840Z,15.60
2022-12-23T07:20:34.233Z,19.00
2022-12-23T07:23:02.583Z,17.10
2022-12-23T07:25:30.862Z,16.03
2022-12-23T07:28:00.520Z,16.63
2022-12-23T07:30:29.164Z,16.37
2022-12-23T07:32:57.487Z,17.17
2022-12-23T07:39:18.051Z,15.70
2022-12-23T07:41:46.313Z,16.17
2022-12-23T07:44:16.085Z,17.10
2022-12-23T07:46:44.526Z,18.63
2022-12-23T07:49:12.950Z,19.20
2022-12-23T07:51:41.167Z,16.53
2022-12-23T07:54:09.470Z,17.87
2022-12-23T07:56:37.748Z,17.00
2022-12-23T07:59:05.933Z,16.80
2022-12-23T08:01:35.822Z,16.67
2022-12-23T08:04:04.298Z,16.00
2022-12-23T08:06:32.729Z,16.60
2022-12-23T08:09:01.029Z,16.10
2022-12-23T08:11:29.615Z,16.80
2022-12-23T08:13:58.164Z,22.33
2022-12-23T08:16:26.700Z,17.23
2022-12-23T08:18:56.418Z,16.60
2022-12-23T08:21:24.705Z,19.47
2022-12-23T08:23:53.260Z,18.63
2022-12-23T08:26:22.302Z,16.40
2022-12-23T08:28:53.389Z,16.83
2022-12-23T08:31:23.854Z,16.80
2022-12-23T08:33:53.350Z,16.50
2022-12-23T08:36:24.198Z,19.00
2022-12-23T08:38:53.199Z,16.83
2022-12-23T08:41:22.847Z,18.23
2022-12-23T08:43:51.437Z,19.17
2022-12-23T08:46:20.081Z,22.27
2022-12-23T08:48:49.602Z,20.00
2022-12-23T08:51:19.571Z,18.00
2022-12-23T08:53:52.425Z,17.77
2022-12-23T08:56:24.025Z,17.97
2022-12-23T08:58:53.090Z,19.67
2022-12-23T09:01:22.206Z,19.30
2022-12-23T09:03:50.590Z,17.20
2022-12-23T09:06:24.863Z,18.70
2022-12-23T09:08:56.331Z,19.40
2022-12-23T09:11:26.030Z,17.77
2022-12-23T09:13:54.464Z,18.90
2022-12-23T09:16:23.018Z,18.53
2022-12-23T09:18:51.401Z,20.00
2022-12-23T09:21:20.359Z,19.60
2022-12-23T09:23:48.877Z,19.80
2022-12-23T09:26:20.822Z,19.43
2022-12-23T09:28:49.341Z,19.73
2022-12-23T09:31:18.665Z,19.93
2022-12-23T09:33:49.174Z,19.93
2022-12-23T09:36:17.689Z,19.33
2022-12-23T09:38:46.266Z,19.10
2022-12-23T09:41:29.041Z,19.37
2022-12-23T09:44:16.994Z,21.57
2022-12-23T09:46:50.579Z,23.20
2022-12-23T09:49:22.546Z,19.93
2022-12-23T09:51:54.140Z,21.03
2022-12-23T09:54:24.123Z,19.37
2022-12-23T09:56:55.131Z,20.53
2022-12-23T09:59:36.811Z,19.80
2022-12-23T10:02:10.523Z,29.60
2022-12-23T10:04:41.864Z,20.60
2022-12-23T10:07:18.377Z,20.43
2022-12-23T10:09:49.338Z,20.07
2022-12-23T10:12:27.296Z,20.60
2022-12-23T10:14:58.856Z,20.60
2022-12-23T10:17:30.229Z,19.97
2022-12-23T10:20:00.206Z,21.63
2022-12-23T10:22:31.443Z,22.40
2022-12-23T10:25:00.625Z,19.07
2022-12-23T10:27:31.936Z,18.80
2022-12-23T10:30:26.520Z,20.10
2022-12-23T10:33:00.368Z,18.97
2022-12-23T10:35:36.917Z,21.30
2022-12-23T10:38:12.962Z,19.03
2022-12-23T10:40:46.252Z,21.07
2022-12-23T10:43:19.062Z,19.13
2022-12-23T10:45:51.785Z,19.57
2022-12-23T10:48:29.982Z,19.97
2022-12-23T10:51:03.032Z,17.90
2022-12-23T10:53:36.693Z,20.80
2022-12-23T10:56:06.718Z,20.63
2022-12-23T10:58:37.971Z,19.03
2022-12-23T11:01:18.869Z,21.47
2022-12-23T11:03:58.234Z,21.20
2022-12-23T11:06:33.120Z,19.60
2022-12-23T11:09:05.532Z,18.67
2022-12-23T11:11:52.684Z,22.50
2022-12-23T11:14:31.333Z,17.73
2022-12-23T11:17:01.707Z,21.37
2022-12-23T11:19:30.256Z,21.03
2022-12-23T11:21:59.602Z,19.10
2022-12-23T11:24:28.564Z,22.67
2022-12-23T11:27:02.253Z,20.47
2022-12-23T11:29:34.127Z,23.10
2022-12-23T11:32:07.396Z,21.27
2022-12-23T11:34:38.187Z,24.13
2022-12-23T11:37:07.736Z,25.90
2022-12-23T11:39:36.938Z,23.40
2022-12-23T11:42:07.692Z,38.90
2022-12-23T11:44:39.738Z,34.83
2022-12-23T11:47:30.785Z,26.77
2022-12-23T11:49:59.678Z,20.87
2022-12-23T11:52:28.951Z,22.90
2022-12-23T11:54:58.251Z,25.10
2022-12-23T11:57:33.427Z,23.63
2022-12-23T12:00:03.481Z,24.20
2022-12-23T12:02:39.214Z,22.83
2022-12-23T12:05:10.544Z,22.10
2022-12-23T12:07:40.969Z,22.10
2022-12-23T12:10:16.260Z,23.57
2022-12-23T12:12:46.791Z,22.77
2022-12-23T12:15:26.316Z,21.40
2022-12-23T12:17:57.198Z,20.40
2022-12-23T12:20:30.069Z,24.20
2022-12-23T12:23:00.335Z,21.83
2022-12-23T12:25:40.010Z,23.73
2022-12-23T12:28:11.829Z,25.70
2022-12-23T12:30:42.386Z,23.37
2022-12-23T12:33:15.645Z,22.27
2022-12-23T12:35:46.921Z,25.73
2022-12-23T12:38:22.454Z,25.03
2022-12-23T12:40:55.340Z,24.63
2022-12-23T12:43:27.987Z,30.27
2022-12-23T12:46:05.470Z,25.90
2022-12-23T12:48:38.950Z,31.87
2022-12-23T12:51:11.624Z,28.30
2022-12-23T12:53:43.613Z,27.20
2022-12-23T12:56:16.904Z,27.53
2022-12-23T12:58:46.196Z,32.47
2022-12-23T13:01:21.979Z,28.53
2022-12-23T13:04:10.196Z,29.70
2022-12-23T13:06:42.108Z,30.30
2022-12-23T13:09:13.928Z,31.17
2022-12-23T13:11:45.520Z,36.43
2022-12-23T13:14:22.569Z,35.17
2022-12-23T13:16:56.115Z,35.27
2022-12-23T13:19:28.964Z,31.97
2022-12-23T13:22:00.254Z,34.40
2022-12-23T13:24:32.594Z,28.67
2022-12-23T13:27:06.480Z,27.57
2022-12-23T13:29:41.139Z,31.27
2022-12-23T13:32:21.553Z,32.37
2022-12-23T13:34:54.832Z,28.93
2022-12-23T13:37:28.456Z,30.67
2022-12-23T13:39:59.500Z,27.77
2022-12-23T13:42:31.038Z,30.63
2022-12-23T13:44:59.877Z,31.50
2022-12-23T13:47:31.715Z,30.37
2022-12-23T13:50:08.328Z,32.37
2022-12-23T13:52:44.050Z,30.40
2022-12-23T13:55:17.139Z,27.87
2022-12-23T13:57:53.403Z,29.43
2022-12-23T14:00:27.216Z,33.30
2022-12-23T14:03:07.842Z,29.57
2022-12-23T14:05:39.572Z,29.00
2022-12-23T14:08:09.379Z,30.83
2022-12-23T14:10:37.957Z,28.50
2022-12-23T14:13:07.526Z,31.53
2022-12-23T14:15:50.047Z,32.87
2022-12-23T14:18:25.471Z,32.00
2022-12-23T14:20:58.876Z,33.10
2022-12-23T14:23:35.570Z,29.30
2022-12-23T14:26:17.650Z,31.73
2022-12-23T14:28:52.713Z,30.23
2022-12-23T14:31:37.347Z,29.27
2022-12-23T14:34:26.859Z,28.67
2022-12-23T14:37:14.031Z,30.67
2022-12-23T14:39:43.891Z,29.13
2022-12-23T14:42:16.879Z,30.07
2022-12-23T14:44:51.620Z,27.87
2022-12-23T14:47:31.668Z,31.57
2022-12-23T14:50:25.939Z,28.47
2022-12-23T14:53:00.839Z,23.70
2022-12-23T14:55:43.363Z,26.43
2022-12-23T14:58:31.088Z,24.67
2022-12-23T15:01:03.147Z,26.33
2022-12-23T15:03:36.672Z,27.53
2022-12-23T15:06:06.570Z,26.90
2022-12-23T15:08:37.382Z,23.17
2022-12-23T15:11:10.039Z,24.70
2022-12-23T15:13:39.132Z,25.77
2022-12-23T15:16:07.970Z,26.47
2022-12-23T15:18:37.952Z,28.80
2022-12-23T15:21:12.383Z,27.83
2022-12-23T15:23:49.478Z,24.57
2022-12-23T15:26:19.398Z,24.30
2022-12-23T15:28:59.702Z,26.57
2022-12-23T15:31:30.349Z,23.80
2022-12-23T15:34:04.059Z,24.20
2022-12-23T15:36:37.033Z,23.27
2022-12-23T15:39:10.290Z,24.13
2022-12-23T15:41:45.127Z,25.93
2022-12-23T15:44:14.798Z,29.50
2022-12-23T15:46:43.673Z,27.17
2022-12-23T15:49:13.129Z,24.30
2022-12-23T15:54:35.196Z,23.90
2022-12-23T15:57:05.329Z,21.77
2022-12-23T15:59:34.772Z,23.90
2022-12-23T16:02:32.592Z,22.70
2022-12-23T16:05:00.321Z,24.90
2022-12-23T16:07:29.745Z,25.30
2022-12-23T16:09:58.005Z,27.00
2022-12-23T16:12:28.159Z,24.43
2022-12-23T16:14:58.081Z,23.70
2022-12-23T16:17:32.269Z,20.87
2022-12-23T16:20:16.396Z,22.90
2022-12-23T16:22:47.636Z,24.60
2022-12-23T16:25:19.829Z,22.47
2022-12-23T16:27:50.644Z,23.17
2022-12-23T16:30:19.840Z,23.37
2022-12-23T16:32:50.292Z,23.80
2022-12-23T16:35:27.674Z,25.33
2022-12-23T16:37:58.313Z,29.23
2022-12-23T16:40:26.605Z,26.13
2022-12-23T16:42:56.229Z,25.23
2022-12-23T16:45:24.711Z,25.53
2022-12-23T16:47:59.358Z,26.47
2022-12-23T16:50:27.785Z,28.73
2022-12-23T16:52:56.051Z,25.37
2022-12-23T16:55:24.305Z,28.17
2022-12-23T16:57:52.621Z,28.30
2022-12-23T17:00:22.360Z,28.67
2022-12-23T17:02:50.677Z,27.47
2022-12-23T17:05:19.619Z,28.23
2022-12-23T17:07:48.057Z,27.77
2022-12-23T17:10:17.508Z,26.20
2022-12-23T17:12:46.504Z,26.90
2022-12-23T17:15:18.313Z,25.40
2022-12-23T17:17:48.019Z,28.23
2022-12-23T17:20:17.252Z,28.00
2022-12-23T17:22:46.919Z,25.97
2022-12-23T17:25:16.335Z,26.20
2022-12-23T17:27:46.281Z,28.30
2022-12-23T17:30:15.985Z,26.00
2022-12-23T17:32:44.900Z,25.70
2022-12-23T17:35:17.079Z,27.87
2022-12-23T17:37:45.360Z,29.73
2022-12-23T17:40:13.970Z,26.43
2022-12-23T17:42:42.415Z,28.90
2022-12-23T17:45:17.468Z,26.83
2022-12-23T17:47:45.784Z,30.37
2022-12-23T17:50:14.119Z,32.00
2022-12-23T17:52:44.156Z,24.83
2022-12-23T17:55:17.480Z,27.80
2022-12-23T17:57:45.798Z,30.70
2022-12-23T18:00:18.601Z,30.73
2022-12-23T18:02:50.999Z,30.83
2022-12-23T18:05:24.248Z,30.23
2022-12-23T18:07:54.308Z,25.10
2022-12-23T18:10:23.792Z,28.07
2022-12-23T18:12:53.355Z,40.73
2022-12-23T18:15:23.397Z,32.30
2022-12-23T18:17:52.250Z,28.70
2022-12-23T18:20:21.902Z,28.90
2022-12-23T18:22:51.243Z,29.13
2022-12-23T18:25:22.362Z,30.47
2022-12-23T18:27:51.411Z,28.23
2022-12-23T18:30:20.588Z,28.87
2022-12-23T18:32:49.196Z,29.07
2022-12-23T18:35:25.584Z,31.07
2022-12-23T18:37:54.111Z,28.87
2022-12-23T18:40:26.799Z,27.97
2022-12-23T18:42:59.269Z,27.07
2022-12-23T18:45:31.939Z,29.20
2022-12-23T18:48:00.776Z,30.83
2022-12-23T18:50:29.459Z,31.80
2022-12-23T18:52:57.753Z,29.90
2022-12-23T18:55:30.322Z,29.20
2022-12-23T18:57:59.114Z,29.63
2022-12-23T19:00:28.624Z,23.43
2022-12-23T19:02:57.430Z,25.33
2022-12-23T19:05:27.191Z,27.07
2022-12-23T19:07:56.484Z,27.27
2022-12-23T19:10:25.955Z,30.67
2022-12-23T19:12:56.158Z,27.97
2022-12-23T19:15:25.052Z,28.50
2022-12-23T19:17:53.318Z,22.17
2022-12-23T19:20:22.298Z,26.67
2022-12-23T19:22:50.935Z,24.73
2022-12-23T19:25:20.106Z,26.57
2022-12-23T19:27:48.502Z,22.80
2022-12-23T19:30:19.476Z,21.23
2022-12-23T19:32:49.961Z,21.30
2022-12-23T19:35:19.819Z,21.50
2022-12-23T19:37:48.558Z,22.47
2022-12-23T19:40:17.135Z,20.03
2022-12-23T19:42:45.830Z,20.80
2022-12-23T19:45:14.315Z,22.97
2022-12-23T19:47:44.047Z,23.10
2022-12-23T19:50:13.166Z,22.33
2022-12-23T19:52:41.511Z,22.67
2022-12-23T19:55:10.799Z,22.53
2022-12-23T19:57:39.578Z,23.17
2022-12-23T20:00:08.937Z,23.60
2022-12-23T20:02:39.225Z,27.03
2022-12-23T20:05:10.395Z,24.03
2022-12-23T20:07:38.763Z,24.30
2022-12-23T20:10:07.710Z,26.27
2022-12-23T20:12:36.004Z,25.63
2022-12-23T20:15:04.261Z,25.47
2022-12-23T20:17:32.695Z,28.93
2022-12-23T20:20:01.216Z,28.13
2022-12-23T20:22:30.984Z,21.23
2022-12-23T20:24:59.856Z,20.87
2022-12-23T20:27:28.504Z,20.23
2022-12-23T20:29:56.849Z,19.43
2022-12-23T20:32:25.216Z,23.50
2022-12-23T20:34:53.489Z,22.53
2022-12-23T20:37:21.787Z,20.73
2022-12-23T20:39:51.490Z,26.77
2022-12-23T20:42:19.761Z,20.37
2022-12-23T20:44:48.024Z,23.40
2022-12-23T20:47:16.389Z,24.07
2022-12-23T20:49:44.762Z,23.73
2022-12-23T20:52:13.192Z,23.27
2022-12-23T20:54:41.501Z,27.20
2022-12-23T20:57:11.249Z,26.80
2022-12-23T20:59:39.590Z,19.87
2022-12-23T21:02:07.939Z,22.40
2022-12-23T21:04:40.919Z,20.70
2022-12-23T21:07:09.462Z,17.00
2022-12-23T21:10:08.571Z,19.60
2022-12-23T21:12:38.250Z,17.70
2022-12-23T21:15:06.917Z,20.33
2022-12-23T21:17:35.205Z,20.43
2022-12-23T21:20:07.745Z,16.53
2022-12-23T21:22:36.390Z,18.13
2022-12-23T21:25:04.660Z,22.77
2022-12-23T21:27:32.913Z,20.50
2022-12-23T21:30:02.486Z,20.53
2022-12-23T21:32:30.782Z,21.37
2022-12-23T21:35:01.561Z,16.70
2022-12-23T21:37:29.876Z,22.17
2022-12-23T21:39:58.133Z,24.97
2022-12-23T21:42:26.391Z,20.30
2022-12-23T21:44:54.722Z,13.30
2022-12-23T21:47:24.345Z,17.23
2022-12-23T21:49:52.578Z,19.30
2022-12-23T21:52:20.794Z,16.00
2022-12-23T21:54:49.076Z,13.00
2022-12-23T21:57:17.293Z,19.20
2022-12-23T21:59:45.528Z,19.83
2022-12-23T22:02:16.931Z,31.27
2022-12-23T22:04:46.694Z,19.93
2022-12-23T22:07:14.993Z,20.13
2022-12-23T22:09:43.290Z,17.97
2022-12-23T22:12:11.528Z,19.87
2022-12-23T22:14:40.505Z,15.07
2022-12-23T22:17:08.791Z,16.83
2022-12-23T22:19:37.065Z,20.13
2022-12-23T22:22:06.637Z,18.03
2022-12-23T22:24:35.085Z,14.47
2022-12-23T22:27:03.352Z,13.63
2022-12-23T22:29:31.636Z,12.90
2022-12-23T22:31:59.903Z,12.87
2022-12-23T22:34:28.224Z,12.87
2022-12-23T22:36:56.527Z,13.17
2022-12-23T22:39:30.844Z,11.17
2022-12-23T22:41:59.311Z,13.20
2022-12-23T22:44:27.563Z,11.97
2022-12-23T22:46:55.940Z,13.37
2022-12-23T22:49:25.133Z,12.00
2022-12-23T22:51:53.357Z,11.90
2022-12-23T22:54:21.622Z,13.50
2022-12-23T22:56:51.248Z,17.40
2022-12-23T22:59:20.965Z,12.40
2022-12-23T23:01:49.696Z,12.07
2022-12-23T23:04:17.973Z,12.67
2022-12-23T23:06:46.322Z,12.53
2022-12-23T23:09:16.379Z,15.07
2022-12-23T23:11:45.429Z,13.80
2022-12-23T23:14:15.512Z,12.50
2022-12-23T23:16:44.221Z,13.23
2022-12-23T23:19:14.369Z,14.93
2022-12-23T23:21:44.079Z,12.27
2022-12-23T23:24:12.345Z,18.47
2022-12-23T23:26:40.600Z,11.43
2022-12-23T23:29:08.877Z,13.00
2022-12-23T23:31:43.186Z,10.20
2022-12-23T23:34:12.143Z,17.03
2022-12-23T23:36:40.511Z,15.90
2022-12-23T23:39:08.884Z,12.57
2022-12-23T23:41:37.191Z,12.83
2022-12-23T23:44:05.486Z,10.97
2022-12-23T23:46:34.167Z,10.80
2022-12-23T23:49:03.946Z,17.23
2022-12-23T23:51:32.355Z,15.57
2022-12-23T23:54:00.601Z,12.47
2022-12-23T23:56:35.811Z,13.80
2022-12-23T23:59:06.316Z,11.07
